Time;durP1;ratioP1;P1;durP2;ratioP2;P2;SDS_P1;SDS_P2;PMS_P1;PMS_P2;Temp;Humidity;BMP_temperature;BMP_pressure;BME280_temperature;BME280_humidity;BME280_pressure;Samples;Min_cycle;Max_cycle;Signal;HPM_P1;HPM_P2
2023/09/27 00:01:42;;;;;;;9.50;7.20;;;13.40;99.90;;;;;;5050824;28;20033;-53
2023/09/27 00:04:08;;;;;;;8.32;7.28;;;13.40;99.90;;;;;;5041672;28;20026;-53
2023/09/27 00:06:34;;;;;;;8.23;7.07;;;13.40;99.90;;;;;;5040343;28;20025;-53
2023/09/27 00:08:59;;;;;;;9.82;8.05;;;13.40;99.90;;;;;;5041378;28;20021;-53
2023/09/27 00:11:25;;;;;;;9.82;7.70;;;13.40;99.90;;;;;;5036845;28;20021;-55
2023/09/27 00:13:50;;;;;;;8.55;7.18;;;13.30;99.90;;;;;;5034882;28;20086;-52
2023/09/27 00:16:16;;;;;;;11.70;7.30;;;13.40;99.90;;;;;;5042781;28;20093;-53
2023/09/27 00:18:42;;;;;;;10.98;8.10;;;13.40;99.90;;;;;;5039246;28;20723;-52
2023/09/27 00:21:07;;;;;;;11.65;7.72;;;13.30;99.90;;;;;;5036094;28;20552;-53
2023/09/27 00:23:33;;;;;;;8.98;7.93;;;13.30;99.90;;;;;;5034744;28;20104;-53
2023/09/27 00:25:58;;;;;;;10.02;7.93;;;13.20;99.90;;;;;;5045559;28;20322;-52
2023/09/27 00:28:24;;;;;;;8.88;7.88;;;13.30;99.90;;;;;;5039746;28;20357;-53
2023/09/27 00:30:50;;;;;;;10.10;7.78;;;13.30;99.90;;;;;;5031573;28;20049;-53
2023/09/27 00:33:16;;;;;;;9.77;7.20;;;13.30;99.90;;;;;;5038829;28;20025;-53
2023/09/27 00:35:46;;;;;;;9.70;7.78;;;13.30;99.90;;;;;;5037543;28;20025;-53
2023/09/27 00:38:12;;;;;;;9.52;7.38;;;13.20;99.90;;;;;;5033065;28;20090;-53
2023/09/27 00:40:44;;;;;;;9.35;7.88;;;13.20;99.90;;;;;;5038619;28;20128;-53
2023/09/27 00:43:10;;;;;;;10.13;8.13;;;13.20;99.90;;;;;;5033978;28;20529;-48
2023/09/27 00:45:35;;;;;;;10.88;8.45;;;13.30;99.90;;;;;;5033182;28;20033;-49
2023/09/27 00:48:01;;;;;;;12.57;7.82;;;13.40;99.90;;;;;;5045138;28;20070;-49
2023/09/27 00:50:26;;;;;;;9.82;7.50;;;13.40;99.90;;;;;;5033314;28;20034;-48
2023/09/27 00:52:52;;;;;;;9.07;7.63;;;13.40;99.90;;;;;;5033569;28;20309;-49
2023/09/27 00:55:19;;;;;;;10.35;7.72;;;13.30;99.90;;;;;;5037731;28;20065;-48
2023/09/27 00:57:45;;;;;;;12.48;7.03;;;13.40;99.90;;;;;;5034544;28;20051;-52
2023/09/27 01:00:12;;;;;;;8.73;7.43;;;13.30;99.90;;;;;;5032486;28;20035;-51
2023/09/27 01:02:39;;;;;;;10.20;8.57;;;13.30;99.90;;;;;;5030871;28;20033;-51
2023/09/27 01:05:08;;;;;;;8.07;7.25;;;13.30;99.90;;;;;;5044442;28;20017;-51
2023/09/27 01:07:34;;;;;;;12.13;8.07;;;13.20;99.90;;;;;;5033636;28;20383;-50
2023/09/27 01:09:59;;;;;;;7.47;6.68;;;13.20;99.90;;;;;;5047885;28;20028;-50
2023/09/27 01:12:25;;;;;;;9.30;7.07;;;13.20;99.90;;;;;;5037002;28;20027;-51
2023/09/27 01:14:51;;;;;;;9.88;6.72;;;13.20;99.90;;;;;;5042794;28;20032;-50
2023/09/27 01:17:16;;;;;;;8.77;7.20;;;13.20;99.90;;;;;;5035520;28;20029;-51
2023/09/27 01:19:42;;;;;;;8.82;7.93;;;13.20;99.90;;;;;;5036886;28;20116;-51
2023/09/27 01:22:07;;;;;;;8.45;7.45;;;13.20;99.90;;;;;;5038544;28;20039;-51
2023/09/27 01:24:37;;;;;;;10.75;7.80;;;13.20;99.90;;;;;;5038579;28;20032;-51
2023/09/27 01:27:07;;;;;;;8.98;7.82;;;13.20;99.90;;;;;;5036287;28;20021;-51
2023/09/27 01:29:33;;;;;;;8.23;6.80;;;13.20;99.90;;;;;;5040541;28;20022;-50
2023/09/27 01:31:58;;;;;;;10.98;8.75;;;13.20;99.90;;;;;;5040553;28;20048;-51
2023/09/27 01:34:24;;;;;;;7.93;7.13;;;13.10;99.90;;;;;;5040364;28;20028;-50
2023/09/27 01:36:51;;;;;;;8.93;7.03;;;13.20;99.90;;;;;;5041778;28;20166;-51
2023/09/27 01:39:16;;;;;;;9.82;7.25;;;13.20;99.90;;;;;;5038399;28;20040;-52
2023/09/27 01:41:42;;;;;;;7.95;6.78;;;13.10;99.90;;;;;;5047616;28;20033;-51
2023/09/27 01:44:07;;;;;;;9.25;7.60;;;13.20;99.90;;;;;;5038320;28;20398;-52
2023/09/27 01:46:33;;;;;;;7.97;7.07;;;13.20;99.90;;;;;;5033858;28;20037;-52
2023/09/27 01:48:58;;;;;;;7.85;7.05;;;13.20;99.90;;;;;;5039061;28;20078;-50
2023/09/27 01:51:24;;;;;;;7.97;6.80;;;13.20;99.90;;;;;;5039933;28;20028;-50
2023/09/27 01:53:49;;;;;;;10.60;8.25;;;13.10;99.90;;;;;;5038256;28;20095;-50
2023/09/27 01:56:15;;;;;;;8.52;7.20;;;13.10;99.90;;;;;;5038361;28;20067;-50
2023/09/27 01:58:40;;;;;;;7.03;6.28;;;13.10;99.90;;;;;;5038594;28;20025;-49
2023/09/27 02:01:06;;;;;;;7.75;6.18;;;13.00;99.90;;;;;;5040038;28;20018;-50
2023/09/27 02:03:31;;;;;;;6.40;5.70;;;13.10;99.90;;;;;;5038677;28;20053;-51
2023/09/27 02:05:57;;;;;;;6.80;6.18;;;13.10;99.90;;;;;;5036112;28;20091;-51
2023/09/27 02:08:23;;;;;;;9.45;7.20;;;13.10;99.90;;;;;;5037528;28;20025;-50
2023/09/27 02:10:51;;;;;;;8.25;7.05;;;13.00;99.90;;;;;;5036179;28;20045;-50
2023/09/27 02:13:17;;;;;;;7.65;6.82;;;13.00;99.90;;;;;;5030747;28;20026;-50
2023/09/27 02:15:42;;;;;;;8.40;7.60;;;12.90;99.90;;;;;;5032659;28;20498;-51
2023/09/27 02:18:08;;;;;;;9.52;7.47;;;13.00;99.90;;;;;;5032320;28;20033;-51
2023/09/27 02:20:33;;;;;;;6.70;5.90;;;12.90;99.90;;;;;;5037944;28;20450;-51
2023/09/27 02:22:59;;;;;;;7.22;5.97;;;12.90;99.90;;;;;;5030734;28;20037;-52
2023/09/27 02:25:25;;;;;;;7.15;6.45;;;12.90;99.90;;;;;;5046290;28;20518;-51
2023/09/27 02:27:51;;;;;;;7.85;7.05;;;12.90;99.90;;;;;;5038153;28;20017;-51
2023/09/27 02:30:16;;;;;;;8.38;6.57;;;12.80;99.90;;;;;;5045451;28;20087;-51
2023/09/27 02:32:42;;;;;;;8.18;7.30;;;12.80;99.90;;;;;;5034317;28;20387;-52
2023/09/27 02:35:13;;;;;;;6.95;5.95;;;12.80;99.90;;;;;;5036938;28;20033;-49
2023/09/27 02:37:40;;;;;;;9.27;6.88;;;12.70;99.90;;;;;;5034547;28;20029;-49
2023/09/27 02:40:11;;;;;;;11.38;7.00;;;12.70;99.90;;;;;;5038688;28;20048;-51
2023/09/27 02:42:40;;;;;;;6.93;6.22;;;12.70;99.90;;;;;;5037419;28;20031;-51
2023/09/27 02:45:11;;;;;;;8.88;6.53;;;12.70;99.90;;;;;;5041795;28;20482;-51
2023/09/27 02:47:38;;;;;;;8.35;7.53;;;12.60;99.90;;;;;;5048229;28;20078;-50
2023/09/27 02:50:07;;;;;;;8.75;6.82;;;12.70;99.90;;;;;;5041558;28;20059;-50
2023/09/27 02:52:33;;;;;;;9.05;6.80;;;12.60;99.90;;;;;;5039075;28;20116;-48
2023/09/27 02:54:58;;;;;;;7.80;6.43;;;12.70;99.90;;;;;;5037716;28;20105;-50
2023/09/27 02:57:24;;;;;;;8.00;6.65;;;12.60;99.90;;;;;;5037893;28;20104;-51
2023/09/27 02:59:49;;;;;;;11.43;6.80;;;12.60;99.90;;;;;;5031798;28;20423;-49
2023/09/27 03:02:16;;;;;;;8.57;6.60;;;12.60;99.90;;;;;;5039790;28;20457;-50
2023/09/27 03:04:42;;;;;;;8.80;6.82;;;12.60;99.90;;;;;;5036318;28;20087;-50
2023/09/27 03:07:08;;;;;;;8.15;6.88;;;12.60;99.90;;;;;;5034632;28;20049;-51
2023/09/27 03:09:37;;;;;;;9.02;7.07;;;12.50;99.90;;;;;;5036776;28;20498;-50
2023/09/27 03:12:03;;;;;;;6.68;5.97;;;12.50;99.90;;;;;;5036172;28;20044;-51
2023/09/27 03:14:29;;;;;;;7.25;6.55;;;12.50;99.90;;;;;;5045495;28;20108;-50
2023/09/27 03:16:54;;;;;;;7.07;6.38;;;12.50;99.90;;;;;;5038812;28;20104;-51
2023/09/27 03:19:22;;;;;;;9.93;7.72;;;12.40;99.90;;;;;;5049051;28;20029;-50
2023/09/27 03:21:48;;;;;;;8.70;6.95;;;12.40;99.90;;;;;;5034630;28;20443;-50
2023/09/27 03:24:13;;;;;;;10.25;7.28;;;12.50;99.90;;;;;;5041454;28;20105;-51
2023/09/27 03:26:39;;;;;;;11.40;8.13;;;12.40;99.90;;;;;;5041102;28;20025;-50
2023/09/27 03:29:04;;;;;;;8.80;6.70;;;12.40;99.90;;;;;;5038002;28;20037;-50
2023/09/27 03:31:30;;;;;;;8.18;7.00;;;12.40;99.90;;;;;;5042199;28;20033;-49
2023/09/27 03:33:56;;;;;;;7.80;6.68;;;12.40;99.90;;;;;;5041628;28;20301;-51
2023/09/27 03:36:21;;;;;;;6.97;6.28;;;12.40;99.90;;;;;;5045894;28;20628;-51
2023/09/27 03:38:47;;;;;;;6.97;6.05;;;12.40;99.90;;;;;;5042260;28;20036;-52
2023/09/27 03:41:13;;;;;;;8.32;6.18;;;12.40;99.90;;;;;;5039472;28;20033;-51
2023/09/27 03:43:39;;;;;;;7.10;6.40;;;12.40;99.90;;;;;;5043031;28;20537;-50
2023/09/27 03:46:05;;;;;;;7.97;6.25;;;12.30;99.90;;;;;;5035950;28;20538;-52
2023/09/27 03:48:34;;;;;;;8.77;6.60;;;12.30;99.90;;;;;;5035563;28;20117;-51
2023/09/27 03:50:59;;;;;;;8.20;7.20;;;12.30;99.90;;;;;;5041235;28;20100;-52
2023/09/27 03:53:25;;;;;;;10.90;7.35;;;12.30;99.90;;;;;;5047901;28;20024;-50
2023/09/27 03:55:51;;;;;;;10.30;6.47;;;12.40;99.90;;;;;;5038333;28;20442;-50
2023/09/27 03:58:17;;;;;;;10.77;7.18;;;12.30;99.90;;;;;;5046175;28;20090;-54
2023/09/27 04:00:44;;;;;;;8.00;6.60;;;12.30;99.90;;;;;;5041869;28;20376;-52
2023/09/27 04:03:09;;;;;;;9.68;7.90;;;12.30;99.90;;;;;;5038446;28;20479;-51
2023/09/27 04:05:35;;;;;;;8.90;7.13;;;12.30;99.90;;;;;;5043960;28;20321;-52
2023/09/27 04:08:01;;;;;;;7.35;6.57;;;12.30;99.90;;;;;;5035639;28;20572;-52
2023/09/27 04:10:28;;;;;;;10.63;7.03;;;12.20;99.90;;;;;;5047156;28;20025;-52
2023/09/27 04:12:53;;;;;;;7.57;6.85;;;12.20;99.90;;;;;;5042309;28;20373;-51
2023/09/27 04:15:19;;;;;;;8.80;7.20;;;12.20;99.90;;;;;;5041408;28;20028;-52
2023/09/27 04:17:44;;;;;;;9.02;6.90;;;12.20;99.90;;;;;;5044176;28;20024;-51
2023/09/27 04:20:18;;;;;;;7.80;6.57;;;12.20;99.90;;;;;;5039450;28;20026;-51
2023/09/27 04:22:47;;;;;;;9.60;6.75;;;12.20;99.90;;;;;;5037303;28;20040;-51
2023/09/27 04:25:15;;;;;;;8.18;6.40;;;12.20;99.90;;;;;;5039736;28;20028;-51
2023/09/27 04:27:46;;;;;;;8.10;6.50;;;12.10;99.90;;;;;;5039787;28;20119;-52
2023/09/27 04:30:13;;;;;;;7.53;6.32;;;12.10;99.90;;;;;;5037586;28;20041;-50
2023/09/27 04:32:43;;;;;;;11.65;7.38;;;12.10;99.90;;;;;;5035087;28;20066;-50
2023/09/27 04:35:10;;;;;;;8.07;6.95;;;12.10;99.90;;;;;;5036877;28;20503;-51
2023/09/27 04:37:39;;;;;;;8.30;7.18;;;12.10;99.90;;;;;;5037341;28;20033;-57
2023/09/27 04:40:11;;;;;;;8.83;6.77;;;12.10;99.90;;;;;;5040232;28;20057;-51
2023/09/27 04:42:37;;;;;;;6.50;5.90;;;12.10;99.90;;;;;;5034339;28;20445;-51
2023/09/27 04:45:03;;;;;;;8.60;6.97;;;12.00;99.90;;;;;;5035507;28;20025;-51
2023/09/27 04:47:28;;;;;;;8.48;7.40;;;12.00;99.90;;;;;;5046057;28;20497;-51
2023/09/27 04:49:54;;;;;;;13.05;7.60;;;12.00;99.90;;;;;;5040347;28;20063;-51
2023/09/27 04:52:20;;;;;;;8.10;6.90;;;12.00;99.90;;;;;;5044076;28;20433;-52
2023/09/27 04:54:46;;;;;;;12.27;7.40;;;12.00;99.90;;;;;;5036709;28;20060;-51
2023/09/27 04:57:12;;;;;;;9.48;6.78;;;12.00;99.90;;;;;;5042574;28;20486;-54
2023/09/27 04:59:37;;;;;;;8.32;7.15;;;12.00;99.90;;;;;;5037064;28;20029;-52
2023/09/27 05:02:03;;;;;;;8.40;7.07;;;12.00;99.90;;;;;;5033735;28;20422;-52
2023/09/27 05:04:29;;;;;;;8.77;7.40;;;12.00;99.90;;;;;;5039248;28;20055;-51
2023/09/27 05:06:54;;;;;;;13.48;8.13;;;11.90;99.90;;;;;;5048294;28;20383;-51
2023/09/27 05:09:20;;;;;;;8.07;7.07;;;11.90;99.90;;;;;;5040954;28;20036;-52
2023/09/27 05:11:46;;;;;;;9.00;7.60;;;11.90;99.90;;;;;;5042947;28;20036;-51
2023/09/27 05:14:13;;;;;;;10.40;8.27;;;11.90;99.90;;;;;;5045688;28;20471;-51
2023/09/27 05:16:39;;;;;;;9.32;7.45;;;11.90;99.90;;;;;;5034672;28;20029;-52
2023/09/27 05:19:04;;;;;;;9.73;8.18;;;11.90;99.90;;;;;;5035435;28;20013;-52
2023/09/27 05:21:30;;;;;;;10.43;8.43;;;11.90;99.90;;;;;;5042908;28;20025;-48
2023/09/27 05:23:55;;;;;;;13.65;9.63;;;11.90;99.90;;;;;;5036165;28;20163;-50
2023/09/27 05:26:21;;;;;;;10.05;7.72;;;11.90;99.90;;;;;;5038083;28;20021;-51
2023/09/27 05:28:46;;;;;;;11.45;7.22;;;11.90;99.90;;;;;;5037359;28;20079;-50
2023/09/27 05:31:12;;;;;;;11.65;9.25;;;11.90;99.90;;;;;;5044438;28;20029;-49
2023/09/27 05:33:37;;;;;;;11.80;8.38;;;11.90;99.90;;;;;;5047491;28;20039;-51
2023/09/27 05:36:03;;;;;;;11.60;9.27;;;11.90;99.90;;;;;;5043791;28;20061;-50
2023/09/27 05:38:29;;;;;;;10.18;8.45;;;12.00;99.90;;;;;;5042995;28;20124;-50
2023/09/27 05:40:54;;;;;;;11.60;8.82;;;12.00;99.90;;;;;;5039234;28;20024;-48
2023/09/27 05:43:20;;;;;;;10.88;8.43;;;12.00;99.90;;;;;;5042676;28;20036;-50
2023/09/27 05:45:45;;;;;;;10.45;8.02;;;12.00;99.90;;;;;;5039030;28;20075;-50
2023/09/27 05:48:14;;;;;;;8.90;7.10;;;12.00;99.90;;;;;;5042689;28;20032;-50
2023/09/27 05:50:44;;;;;;;8.93;7.55;;;12.00;99.90;;;;;;5039006;28;20021;-49
2023/09/27 05:53:11;;;;;;;10.02;8.20;;;12.10;99.90;;;;;;5039082;28;20100;-51
2023/09/27 05:55:37;;;;;;;9.63;7.95;;;12.10;99.90;;;;;;5041348;28;20467;-51
2023/09/27 05:58:02;;;;;;;11.10;8.60;;;12.10;99.90;;;;;;5039063;28;20101;-49
2023/09/27 06:00:37;;;;;;;11.32;8.48;;;12.20;99.90;;;;;;5035556;28;20017;-47
2023/09/27 06:03:04;;;;;;;9.98;8.27;;;12.20;99.90;;;;;;5040568;28;20060;-47
2023/09/27 06:05:29;;;;;;;8.25;7.28;;;12.20;99.90;;;;;;5042673;28;20112;-49
2023/09/27 06:07:55;;;;;;;10.77;7.90;;;12.30;99.90;;;;;;5042972;28;20109;-48
2023/09/27 06:10:22;;;;;;;8.65;7.07;;;12.30;99.90;;;;;;5043107;28;20021;-48
2023/09/27 06:12:47;;;;;;;7.22;6.28;;;12.40;99.90;;;;;;5038229;28;20063;-50
2023/09/27 06:15:14;;;;;;;7.32;6.22;;;12.40;99.90;;;;;;5034412;28;20459;-48
2023/09/27 06:17:40;;;;;;;8.45;6.50;;;12.40;99.90;;;;;;5034726;28;20030;-50
2023/09/27 06:20:11;;;;;;;8.13;6.95;;;12.50;99.90;;;;;;5038946;28;20018;-48
2023/09/27 06:22:39;;;;;;;8.77;6.93;;;12.50;99.90;;;;;;5040058;28;20036;-50
2023/09/27 06:25:05;;;;;;;8.23;7.30;;;12.60;99.90;;;;;;5038466;28;20540;-50
2023/09/27 06:27:31;;;;;;;9.60;7.78;;;12.60;99.90;;;;;;5038141;28;20054;-50
2023/09/27 06:29:56;;;;;;;8.77;7.35;;;12.70;99.90;;;;;;5046476;28;20029;-48
2023/09/27 06:32:22;;;;;;;9.85;7.82;;;12.80;99.90;;;;;;5038049;28;20118;-49
2023/09/27 06:34:48;;;;;;;8.60;7.70;;;12.90;99.90;;;;;;5037553;28;20025;-50
2023/09/27 06:37:14;;;;;;;7.88;7.07;;;12.90;99.90;;;;;;5046130;28;20544;-49
2023/09/27 06:39:41;;;;;;;9.13;7.60;;;13.00;99.90;;;;;;5042551;28;20109;-51
2023/09/27 06:42:07;;;;;;;8.60;7.45;;;13.10;99.90;;;;;;5038196;28;20025;-50
2023/09/27 06:44:33;;;;;;;9.63;7.72;;;13.10;99.90;;;;;;5041333;28;20021;-51
2023/09/27 06:46:59;;;;;;;10.00;7.40;;;13.20;99.90;;;;;;5042223;28;20567;-51
2023/09/27 06:49:25;;;;;;;9.88;8.43;;;13.30;99.90;;;;;;5046081;28;20021;-51
2023/09/27 06:51:51;;;;;;;10.30;8.13;;;13.40;99.90;;;;;;5039065;28;20055;-50
2023/09/27 06:54:17;;;;;;;11.20;8.13;;;13.40;99.90;;;;;;5040149;28;20022;-50
2023/09/27 06:56:43;;;;;;;10.27;7.97;;;13.50;99.90;;;;;;5039228;28;20056;-50
2023/09/27 06:59:08;;;;;;;8.93;7.70;;;13.60;99.90;;;;;;5039879;28;20034;-51
2023/09/27 07:01:34;;;;;;;9.27;7.75;;;13.70;99.90;;;;;;5039030;28;20036;-49
2023/09/27 07:04:03;;;;;;;12.43;8.65;;;13.80;99.90;;;;;;5035128;28;20156;-51
2023/09/27 07:06:28;;;;;;;8.98;7.93;;;13.90;99.90;;;;;;5040330;28;20028;-51
2023/09/27 07:08:57;;;;;;;10.27;7.88;;;13.90;99.90;;;;;;5040250;28;20096;-53
2023/09/27 07:11:23;;;;;;;9.70;8.35;;;14.00;99.90;;;;;;5040399;28;20075;-51
2023/09/27 07:13:50;;;;;;;8.80;7.43;;;14.10;99.90;;;;;;5040999;28;20029;-51
2023/09/27 07:16:20;;;;;;;10.07;7.80;;;14.20;99.90;;;;;;5044113;28;20112;-49
2023/09/27 07:18:47;;;;;;;10.70;7.70;;;14.30;99.90;;;;;;5036046;28;20087;-51
2023/09/27 07:21:13;;;;;;;10.10;8.30;;;14.50;99.90;;;;;;5044246;28;20025;-51
2023/09/27 07:23:39;;;;;;;8.38;7.35;;;14.90;99.90;;;;;;5041867;28;20037;-51
2023/09/27 07:26:05;;;;;;;8.30;7.03;;;14.90;99.90;;;;;;5040110;28;20025;-51
2023/09/27 07:28:31;;;;;;;7.25;6.13;;;15.00;99.90;;;;;;5039976;28;20022;-51
2023/09/27 07:30:57;;;;;;;7.35;6.55;;;15.10;99.90;;;;;;5039189;28;20033;-51
2023/09/27 07:33:24;;;;;;;6.68;5.70;;;15.20;99.90;;;;;;5038376;28;20037;-51
2023/09/27 07:35:52;;;;;;;7.25;6.55;;;15.30;99.90;;;;;;5051428;28;20047;-52
2023/09/27 07:38:18;;;;;;;10.90;7.25;;;15.40;99.90;;;;;;5038043;28;20026;-51
2023/09/27 07:40:47;;;;;;;11.80;7.97;;;15.70;99.90;;;;;;5040872;28;20429;-50
2023/09/27 07:43:14;;;;;;;7.30;5.85;;;16.10;99.90;;;;;;5036540;28;20060;-51
2023/09/27 07:45:42;;;;;;;9.85;7.53;;;16.30;99.90;;;;;;5039079;28;20075;-51
2023/09/27 07:48:08;;;;;;;8.65;5.60;;;16.50;99.90;;;;;;5040319;28;20010;-51
2023/09/27 07:50:37;;;;;;;7.68;5.68;;;16.70;99.90;;;;;;5044976;28;20027;-50
2023/09/27 07:53:03;;;;;;;7.53;5.38;;;16.90;99.90;;;;;;5041403;28;20013;-51
2023/09/27 07:55:33;;;;;;;5.85;4.70;;;17.00;99.90;;;;;;5038899;28;20498;-51
2023/09/27 07:57:59;;;;;;;9.07;5.03;;;17.20;99.90;;;;;;5044785;28;20498;-52
2023/09/27 08:00:28;;;;;;;6.47;5.15;;;17.30;99.90;;;;;;5044304;28;20040;-50
2023/09/27 08:02:55;;;;;;;7.18;4.90;;;17.50;99.90;;;;;;5042063;28;20110;-51
2023/09/27 08:05:22;;;;;;;6.50;4.97;;;17.60;99.90;;;;;;5044900;28;20025;-51
2023/09/27 08:07:48;;;;;;;8.48;4.68;;;17.70;99.90;;;;;;5041865;28;20022;-50
2023/09/27 08:10:15;;;;;;;4.32;3.92;;;17.80;99.90;;;;;;5039540;28;20022;-51
2023/09/27 08:12:42;;;;;;;7.13;4.55;;;17.90;99.90;;;;;;5041055;28;20021;-51
2023/09/27 08:15:09;;;;;;;5.47;4.50;;;18.00;99.90;;;;;;5037215;28;20021;-52
2023/09/27 08:17:35;;;;;;;5.97;4.38;;;18.20;99.90;;;;;;5048239;28;20040;-51
2023/09/27 08:20:05;;;;;;;6.10;4.32;;;18.40;99.90;;;;;;5038126;28;20033;-51
2023/09/27 08:22:33;;;;;;;6.55;3.97;;;18.80;99.90;;;;;;5040432;28;20033;-51
2023/09/27 08:24:58;;;;;;;7.80;3.75;;;19.80;99.90;;;;;;5042528;28;20049;-51
2023/09/27 08:27:25;;;;;;;6.20;3.45;;;21.40;99.90;;;;;;5040903;28;20057;-52
2023/09/27 08:29:51;;;;;;;5.70;2.95;;;23.30;99.90;;;;;;5042537;28;20068;-54
2023/09/27 08:32:16;;;;;;;4.75;2.97;;;25.20;99.90;;;;;;5044380;28;20045;-53
2023/09/27 08:34:42;;;;;;;3.50;2.90;;;26.80;96.80;;;;;;5041277;28;20041;-53
2023/09/27 08:37:07;;;;;;;3.55;2.70;;;28.50;93.70;;;;;;5038860;28;20108;-53
2023/09/27 08:39:33;;;;;;;2.78;2.03;;;29.90;87.60;;;;;;5043373;28;20035;-53
2023/09/27 08:41:58;;;;;;;2.97;2.30;;;30.50;85.00;;;;;;5040020;28;20029;-54
2023/09/27 08:44:25;;;;;;;3.83;2.10;;;31.30;81.00;;;;;;5045177;28;20568;-53
2023/09/27 08:46:54;;;;;;;4.25;1.95;;;32.00;78.90;;;;;;5041805;28;20120;-54
2023/09/27 08:49:20;;;;;;;2.67;1.90;;;33.10;75.10;;;;;;5042238;28;20390;-53
2023/09/27 08:51:48;;;;;;;2.90;2.00;;;33.90;73.60;;;;;;5040375;28;20346;-54
2023/09/27 08:54:16;;;;;;;4.15;2.17;;;34.70;71.30;;;;;;5045561;28;20029;-53
2023/09/27 08:56:47;;;;;;;3.57;2.00;;;35.00;67.40;;;;;;5044328;28;20025;-54
2023/09/27 08:59:13;;;;;;;6.20;1.98;;;35.40;66.60;;;;;;5042030;28;20036;-54
2023/09/27 09:01:42;;;;;;;4.63;2.08;;;35.80;67.80;;;;;;5042837;28;20028;-54
2023/09/27 09:04:08;;;;;;;3.13;2.00;;;36.30;65.60;;;;;;5037462;28;20410;-54
2023/09/27 09:06:35;;;;;;;5.47;2.15;;;37.70;61.30;;;;;;5036061;28;20364;-54
2023/09/27 09:09:12;;;;;;;3.55;2.00;;;36.90;60.60;;;;;;5043230;28;20064;-54
2023/09/27 09:11:43;;;;;;;2.92;2.00;;;36.60;60.30;;;;;;5039765;28;20364;-54
2023/09/27 09:14:10;;;;;;;4.18;2.10;;;36.10;61.60;;;;;;5041343;28;20021;-54
2023/09/27 09:16:47;;;;;;;7.15;1.95;;;35.50;63.40;;;;;;5045959;28;20028;-53
2023/09/27 09:19:23;;;;;;;5.00;2.10;;;35.10;63.90;;;;;;5038411;28;20041;-54
2023/09/27 09:22:04;;;;;;;5.13;2.22;;;35.10;61.50;;;;;;5037594;28;20021;-53
2023/09/27 09:24:32;;;;;;;4.25;1.95;;;33.20;64.80;;;;;;5038307;28;20693;-53
2023/09/27 09:27:10;;;;;;;4.15;2.10;;;33.30;65.10;;;;;;5036955;28;20024;-54
2023/09/27 09:29:53;;;;;;;3.77;2.10;;;33.50;66.00;;;;;;5042183;28;20394;-54
2023/09/27 09:32:25;;;;;;;5.20;2.47;;;32.80;66.10;;;;;;5042856;28;20025;-53
2023/09/27 09:34:53;;;;;;;3.10;2.38;;;32.40;67.00;;;;;;5040015;28;20112;-53
2023/09/27 09:37:19;;;;;;;5.30;2.45;;;32.00;67.00;;;;;;5042651;28;20036;-54
2023/09/27 09:39:47;;;;;;;3.95;2.67;;;32.00;67.60;;;;;;5045512;28;20025;-53
2023/09/27 09:42:28;;;;;;;8.93;3.35;;;32.00;66.20;;;;;;5040158;28;20024;-53
2023/09/27 09:45:00;;;;;;;3.53;2.15;;;32.60;66.60;;;;;;5048370;28;20017;-54
2023/09/27 09:47:28;;;;;;;7.38;2.10;;;33.20;66.70;;;;;;5039985;28;20162;-54
2023/09/27 09:49:53;;;;;;;5.18;2.10;;;33.50;65.10;;;;;;5037239;28;20021;-54
2023/09/27 09:52:25;;;;;;;3.92;2.30;;;34.40;65.30;;;;;;5042030;28;20026;-53
2023/09/27 09:54:57;;;;;;;4.57;2.20;;;34.90;63.10;;;;;;5047072;28;20024;-54
2023/09/27 09:57:33;;;;;;;3.65;2.40;;;35.50;61.30;;;;;;5039327;28;20513;-54
2023/09/27 10:00:16;;;;;;;3.42;1.70;;;36.10;61.50;;;;;;5032338;28;20470;-54
2023/09/27 10:02:51;;;;;;;4.57;2.45;;;36.70;61.00;;;;;;5041993;28;20111;-53
2023/09/27 10:05:19;;;;;;;3.70;2.10;;;35.40;59.30;;;;;;5039099;28;20025;-54
2023/09/27 10:07:45;;;;;;;6.40;2.30;;;34.90;61.50;;;;;;5042890;28;20029;-53
2023/09/27 10:10:14;;;;;;;3.88;2.42;;;34.60;61.50;;;;;;5042099;28;20104;-54
2023/09/27 10:12:44;;;;;;;2.88;2.10;;;34.80;58.50;;;;;;5045178;28;20028;-53
2023/09/27 10:15:11;;;;;;;2.50;2.30;;;34.50;59.20;;;;;;5042048;28;20028;-54
2023/09/27 10:17:36;;;;;;;3.53;2.00;;;33.50;61.40;;;;;;5040040;28;20028;-54
2023/09/27 10:20:12;;;;;;;2.50;1.95;;;33.60;60.90;;;;;;5049220;28;20040;-54
2023/09/27 10:22:39;;;;;;;4.53;1.83;;;33.70;62.00;;;;;;5039420;28;20498;-53
2023/09/27 10:25:05;;;;;;;4.40;2.28;;;33.80;61.90;;;;;;5035949;28;20021;-54
2023/09/27 10:27:58;;;;;;;2.55;1.88;;;34.10;62.00;;;;;;5043145;28;20525;-53
2023/09/27 10:30:24;;;;;;;3.70;2.65;;;33.90;61.70;;;;;;5041649;28;20420;-54
2023/09/27 10:33:16;;;;;;;4.50;2.15;;;33.70;61.40;;;;;;5046653;28;20119;-54
2023/09/27 10:36:01;;;;;;;3.47;2.08;;;33.20;62.00;;;;;;5046730;28;20025;-54
2023/09/27 10:38:49;;;;;;;6.28;2.30;;;34.10;61.10;;;;;;5047022;28;20120;-54
2023/09/27 10:41:32;;;;;;;2.58;2.25;;;34.00;60.70;;;;;;5042204;28;20049;-53
2023/09/27 10:44:02;;;;;;;2.97;2.30;;;35.10;62.70;;;;;;5049872;28;20394;-54
2023/09/27 10:46:45;;;;;;;3.78;2.20;;;35.20;60.50;;;;;;5050122;28;20029;-54
2023/09/27 10:49:11;;;;;;;2.70;2.25;;;35.60;61.10;;;;;;5045318;28;20021;-54
2023/09/27 10:51:37;;;;;;;19.67;7.72;;;36.90;59.00;;;;;;5046860;28;20222;-54
2023/09/27 10:54:08;;;;;;;8.65;3.28;;;37.50;59.30;;;;;;5040050;28;20554;-54
2023/09/27 10:56:34;;;;;;;3.38;2.90;;;37.20;57.30;;;;;;5042144;28;20494;-54
2023/09/27 10:58:59;;;;;;;31.88;11.48;;;36.80;57.80;;;;;;5042624;28;20029;-54
2023/09/27 11:01:25;;;;;;;7.07;3.05;;;37.90;58.60;;;;;;5042196;28;20501;-54
2023/09/27 11:03:58;;;;;;;32.70;7.38;;;38.50;55.90;;;;;;5047286;28;20025;-54
2023/09/27 11:06:24;;;;;;;27.65;6.25;;;37.90;57.20;;;;;;5046883;28;20237;-54
2023/09/27 11:08:49;;;;;;;6.00;2.53;;;38.50;57.40;;;;;;5038810;28;20026;-54
2023/09/27 11:11:15;;;;;;;3.95;2.38;;;38.60;57.50;;;;;;5042558;28;20108;-54
2023/09/27 11:13:45;;;;;;;3.03;2.10;;;38.70;57.80;;;;;;5048168;28;20024;-54
2023/09/27 11:16:15;;;;;;;4.22;1.90;;;39.20;57.50;;;;;;5046190;28;20026;-54
2023/09/27 11:18:49;;;;;;;3.42;1.98;;;39.20;56.30;;;;;;5046801;28;20032;-54
2023/09/27 11:21:16;;;;;;;5.75;2.05;;;39.10;57.30;;;;;;5036403;28;20395;-54
2023/09/27 11:23:55;;;;;;;5.75;2.05;;;39.20;56.10;;;;;;5042375;28;20076;-54
2023/09/27 11:26:24;;;;;;;4.93;2.63;;;39.40;54.90;;;;;;5040743;28;20022;-54
2023/09/27 11:29:07;;;;;;;2.35;1.95;;;39.30;54.40;;;;;;5041288;28;20025;-54
2023/09/27 11:31:34;;;;;;;7.68;2.78;;;39.50;54.60;;;;;;5039437;28;20083;-54
2023/09/27 11:34:30;;;;;;;4.47;2.30;;;38.50;54.00;;;;;;5045865;28;20529;-54
2023/09/27 11:36:57;;;;;;;5.75;2.40;;;38.40;55.80;;;;;;5033698;28;20091;-54
2023/09/27 11:39:52;;;;;;;5.28;2.08;;;38.80;57.00;;;;;;5038256;28;20021;-54
2023/09/27 11:42:25;;;;;;;5.43;2.90;;;39.80;54.80;;;;;;5040000;28;20096;-54
2023/09/27 11:45:04;;;;;;;7.00;2.20;;;40.10;54.40;;;;;;5044986;28;20021;-54
2023/09/27 11:47:31;;;;;;;5.10;2.33;;;40.10;54.40;;;;;;5042085;28;20317;-54
2023/09/27 11:49:56;;;;;;;4.75;2.47;;;39.70;53.80;;;;;;5042222;28;20053;-54
2023/09/27 11:52:23;;;;;;;5.63;2.78;;;39.80;54.10;;;;;;5045820;28;20025;-54
2023/09/27 11:54:48;;;;;;;7.25;2.83;;;39.30;53.20;;;;;;5048479;28;20328;-54
2023/09/27 11:57:14;;;;;;;5.05;2.95;;;38.30;55.00;;;;;;5046479;28;20033;-54
2023/09/27 11:59:39;;;;;;;4.65;3.08;;;37.70;55.60;;;;;;5041502;28;20037;-54
2023/09/27 12:02:05;;;;;;;5.88;3.35;;;37.60;56.10;;;;;;5040233;28;20041;-54
2023/09/27 12:04:33;;;;;;;3.47;2.65;;;37.10;57.20;;;;;;5042165;28;20025;-54
2023/09/27 12:06:58;;;;;;;8.05;3.70;;;35.60;59.30;;;;;;5047492;28;20071;-54
2023/09/27 12:09:24;;;;;;;13.65;3.40;;;34.80;60.00;;;;;;5040430;28;20052;-53
2023/09/27 12:11:49;;;;;;;5.10;3.45;;;33.80;60.50;;;;;;5047474;28;20096;-53
2023/09/27 12:14:15;;;;;;;7.43;3.75;;;33.10;62.00;;;;;;5042645;28;20029;-54
2023/09/27 12:16:41;;;;;;;8.82;4.32;;;33.00;62.30;;;;;;5048080;28;20033;-53
2023/09/27 12:19:07;;;;;;;4.93;3.53;;;32.80;62.30;;;;;;5046353;28;20124;-53
2023/09/27 12:21:35;;;;;;;5.43;3.30;;;32.70;64.30;;;;;;5042378;28;20554;-53
2023/09/27 12:24:02;;;;;;;8.52;3.50;;;32.70;64.00;;;;;;5046152;28;20045;-53
2023/09/27 12:26:28;;;;;;;6.65;3.60;;;32.50;64.20;;;;;;5039047;28;20022;-53
2023/09/27 12:28:54;;;;;;;8.82;3.33;;;32.20;64.50;;;;;;5046071;28;20029;-53
2023/09/27 12:31:20;;;;;;;6.00;3.50;;;31.60;65.50;;;;;;5028705;28;20540;-53
2023/09/27 12:33:45;;;;;;;5.80;4.00;;;31.80;67.20;;;;;;5039074;28;20025;-53
2023/09/27 12:36:11;;;;;;;6.55;3.63;;;31.50;66.20;;;;;;5040432;28;20490;-52
2023/09/27 12:38:36;;;;;;;6.78;4.43;;;31.50;65.80;;;;;;5036220;28;20112;-53
2023/09/27 12:41:03;;;;;;;9.50;3.70;;;31.20;65.60;;;;;;5041014;28;20029;-53
2023/09/27 12:43:29;;;;;;;10.02;4.43;;;31.30;66.10;;;;;;5036044;28;20521;-54
2023/09/27 12:45:55;;;;;;;6.80;3.90;;;30.70;65.70;;;;;;5047563;28;20048;-53
2023/09/27 12:48:20;;;;;;;10.55;4.47;;;30.20;67.90;;;;;;5049154;28;20010;-53